sensor_id;sensor_type;location;lat;lon;timestamp;temperature;humidity
58513;DHT22;44302;47.914;10.642;2022-07-29T00:43:15;16.40;99.90
58513;DHT22;44302;47.914;10.642;2022-07-29T00:50:35;16.30;99.90
58513;DHT22;44302;47.914;10.642;2022-07-29T00:53:02;16.20;99.90
58513;DHT22;44302;47.914;10.642;2022-07-29T01:00:23;16.00;99.90
58513;DHT22;44302;47.914;10.642;2022-07-29T01:02:50;15.90;99.90
58513;DHT22;44302;47.914;10.642;2022-07-29T01:07:44;15.80;99.90
58513;DHT22;44302;47.914;10.642;2022-07-29T01:10:12;15.80;99.90
58513;DHT22;44302;47.914;10.642;2022-07-29T01:15:06;15.70;99.90
58513;DHT22;44302;47.914;10.642;2022-07-29T01:17:38;15.70;99.90
58513;DHT22;44302;47.914;10.642;2022-07-29T01:28:56;15.60;99.90
58513;DHT22;44302;47.914;10.642;2022-07-29T01:31:35;15.60;99.90
58513;DHT22;44302;47.914;10.642;2022-07-29T01:34:05;15.80;99.90
58513;DHT22;44302;47.914;10.642;2022-07-29T01:36:44;15.60;99.90
58513;DHT22;44302;47.914;10.642;2022-07-29T01:39:35;15.50;99.90
58513;DHT22;44302;47.914;10.642;2022-07-29T01:42:15;15.80;99.90
58513;DHT22;44302;47.914;10.642;2022-07-29T01:48:06;15.60;99.90
58513;DHT22;44302;47.914;10.642;2022-07-29T01:50:48;15.50;99.90
58513;DHT22;44302;47.914;10.642;2022-07-29T01:53:21;15.50;99.90
58513;DHT22;44302;47.914;10.642;2022-07-29T01:55:49;15.40;99.90
58513;DHT22;44302;47.914;10.642;2022-07-29T01:58:18;15.50;99.90
58513;DHT22;44302;47.914;10.642;2022-07-29T02:00:45;15.40;99.90
58513;DHT22;44302;47.914;10.642;2022-07-29T02:03:13;15.30;99.90
58513;DHT22;44302;47.914;10.642;2022-07-29T02:05:42;15.40;99.90
58513;DHT22;44302;47.914;10.642;2022-07-29T02:08:10;15.40;99.90
58513;DHT22;44302;47.914;10.642;2022-07-29T02:10:38;15.40;99.90
58513;DHT22;44302;47.914;10.642;2022-07-29T02:13:06;15.40;99.90
58513;DHT22;44302;47.914;10.642;2022-07-29T02:15:33;15.20;99.90
58513;DHT22;44302;47.914;10.642;2022-07-29T02:18:07;15.40;99.90
58513;DHT22;44302;47.914;10.642;2022-07-29T02:20:33;15.30;99.90
58513;DHT22;44302;47.914;10.642;2022-07-29T02:23:00;15.30;99.90
58513;DHT22;44302;47.914;10.642;2022-07-29T02:25:28;15.50;99.90
58513;DHT22;44302;47.914;10.642;2022-07-29T02:27:55;15.30;99.90
58513;DHT22;44302;47.914;10.642;2022-07-29T02:30:22;15.30;99.90
58513;DHT22;44302;47.914;10.642;2022-07-29T02:32:49;15.40;99.90
58513;DHT22;44302;47.914;10.642;2022-07-29T02:35:16;15.50;99.90
58513;DHT22;44302;47.914;10.642;2022-07-29T02:37:43;15.20;99.90
58513;DHT22;44302;47.914;10.642;2022-07-29T02:40:11;15.40;99.90
58513;DHT22;44302;47.914;10.642;2022-07-29T02:42:41;15.30;99.90
58513;DHT22;44302;47.914;10.642;2022-07-29T02:45:08;15.40;99.90
58513;DHT22;44302;47.914;10.642;2022-07-29T02:47:41;15.30;99.90
58513;DHT22;44302;47.914;10.642;2022-07-29T02:50:32;15.20;99.90
58513;DHT22;44302;47.914;10.642;2022-07-29T02:53:05;15.20;99.90
58513;DHT22;44302;47.914;10.642;2022-07-29T02:55:39;15.20;99.90
58513;DHT22;44302;47.914;10.642;2022-07-29T03:00:38;15.30;99.90
58513;DHT22;44302;47.914;10.642;2022-07-29T03:03:11;15.20;99.90
58513;DHT22;44302;47.914;10.642;2022-07-29T03:05:37;15.40;99.90
58513;DHT22;44302;47.914;10.642;2022-07-29T03:08:06;15.00;99.90
58513;DHT22;44302;47.914;10.642;2022-07-29T03:10:34;15.20;99.90
58513;DHT22;44302;47.914;10.642;2022-07-29T03:13:00;14.90;99.90
58513;DHT22;44302;47.914;10.642;2022-07-29T03:15:27;15.20;99.90
58513;DHT22;44302;47.914;10.642;2022-07-29T03:20:21;15.20;99.90
58513;DHT22;44302;47.914;10.642;2022-07-29T03:22:46;15.20;99.90
58513;DHT22;44302;47.914;10.642;2022-07-29T03:25:17;15.10;99.90
58513;DHT22;44302;47.914;10.642;2022-07-29T03:30:10;15.30;99.90
58513;DHT22;44302;47.914;10.642;2022-07-29T03:32:36;14.90;99.90
58513;DHT22;44302;47.914;10.642;2022-07-29T03:35:03;15.10;99.90
58513;DHT22;44302;47.914;10.642;2022-07-29T03:37:29;14.90;99.90
58513;DHT22;44302;47.914;10.642;2022-07-29T03:39:56;15.10;99.90
58513;DHT22;44302;47.914;10.642;2022-07-29T03:42:25;15.10;99.90
58513;DHT22;44302;47.914;10.642;2022-07-29T03:44:53;15.10;99.90
58513;DHT22;44302;47.914;10.642;2022-07-29T03:47:23;15.00;99.90
58513;DHT22;44302;47.914;10.642;2022-07-29T03:49:55;15.10;99.90
58513;DHT22;44302;47.914;10.642;2022-07-29T03:54:48;15.00;99.90
58513;DHT22;44302;47.914;10.642;2022-07-29T03:57:15;14.80;99.90
58513;DHT22;44302;47.914;10.642;2022-07-29T04:02:09;14.90;99.90
58513;DHT22;44302;47.914;10.642;2022-07-29T04:04:36;14.90;99.90
58513;DHT22;44302;47.914;10.642;2022-07-29T04:09:28;14.90;99.90
58513;DHT22;44302;47.914;10.642;2022-07-29T04:11:54;15.10;99.90
58513;DHT22;44302;47.914;10.642;2022-07-29T04:16:46;14.90;99.90
58513;DHT22;44302;47.914;10.642;2022-07-29T04:21:39;15.10;99.90
58513;DHT22;44302;47.914;10.642;2022-07-29T04:24:06;14.60;99.90
58513;DHT22;44302;47.914;10.642;2022-07-29T04:26:33;15.10;99.90
58513;DHT22;44302;47.914;10.642;2022-07-29T04:28:59;14.60;99.90
58513;DHT22;44302;47.914;10.642;2022-07-29T04:33:51;15.10;99.90
58513;DHT22;44302;47.914;10.642;2022-07-29T04:36:17;14.80;99.90
58513;DHT22;44302;47.914;10.642;2022-07-29T04:38:43;14.70;99.90
58513;DHT22;44302;47.914;10.642;2022-07-29T04:41:08;14.90;99.90
58513;DHT22;44302;47.914;10.642;2022-07-29T04:43:35;15.00;99.90
58513;DHT22;44302;47.914;10.642;2022-07-29T04:46:02;15.00;99.90
58513;DHT22;44302;47.914;10.642;2022-07-29T04:48:28;15.00;99.90
58513;DHT22;44302;47.914;10.642;2022-07-29T04:50:54;15.10;99.90
58513;DHT22;44302;47.914;10.642;2022-07-29T04:53:20;15.30;99.90
58513;DHT22;44302;47.914;10.642;2022-07-29T04:55:46;15.30;99.90
58513;DHT22;44302;47.914;10.642;2022-07-29T05:00:38;14.90;99.90
58513;DHT22;44302;47.914;10.642;2022-07-29T05:03:04;15.10;99.90
58513;DHT22;44302;47.914;10.642;2022-07-29T05:05:30;15.20;99.90
58513;DHT22;44302;47.914;10.642;2022-07-29T05:10:22;15.50;99.90
58513;DHT22;44302;47.914;10.642;2022-07-29T05:12:48;15.30;99.90
58513;DHT22;44302;47.914;10.642;2022-07-29T05:17:40;15.40;99.90
58513;DHT22;44302;47.914;10.642;2022-07-29T05:20:06;15.50;99.90
58513;DHT22;44302;47.914;10.642;2022-07-29T05:22:32;15.50;99.90
58513;DHT22;44302;47.914;10.642;2022-07-29T05:24:58;15.60;99.90
58513;DHT22;44302;47.914;10.642;2022-07-29T05:27:23;15.60;99.90
58513;DHT22;44302;47.914;10.642;2022-07-29T05:29:49;15.60;99.90
58513;DHT22;44302;47.914;10.642;2022-07-29T05:32:15;15.70;99.90
58513;DHT22;44302;47.914;10.642;2022-07-29T05:34:41;15.80;99.90
58513;DHT22;44302;47.914;10.642;2022-07-29T05:37:07;15.80;99.90
58513;DHT22;44302;47.914;10.642;2022-07-29T05:41:59;16.00;99.90
58513;DHT22;44302;47.914;10.642;2022-07-29T05:44:24;16.00;99.90
58513;DHT22;44302;47.914;10.642;2022-07-29T05:49:16;16.10;99.90
58513;DHT22;44302;47.914;10.642;2022-07-29T05:51:42;16.20;99.90
58513;DHT22;44302;47.914;10.642;2022-07-29T05:56:36;16.40;99.90
58513;DHT22;44302;47.914;10.642;2022-07-29T05:59:02;16.50;99.90
58513;DHT22;44302;47.914;10.642;2022-07-29T06:01:28;16.50;99.90
58513;DHT22;44302;47.914;10.642;2022-07-29T06:03:54;16.60;99.90
58513;DHT22;44302;47.914;10.642;2022-07-29T06:08:45;16.80;99.90
58513;DHT22;44302;47.914;10.642;2022-07-29T06:13:37;17.00;99.90
58513;DHT22;44302;47.914;10.642;2022-07-29T06:16:03;17.30;99.90
58513;DHT22;44302;47.914;10.642;2022-07-29T06:18:29;17.40;99.90
58513;DHT22;44302;47.914;10.642;2022-07-29T06:20:55;17.60;99.90
58513;DHT22;44302;47.914;10.642;2022-07-29T06:23:21;17.80;99.90
58513;DHT22;44302;47.914;10.642;2022-07-29T06:25:46;18.10;99.90
58513;DHT22;44302;47.914;10.642;2022-07-29T06:28:12;18.10;99.90
58513;DHT22;44302;47.914;10.642;2022-07-29T06:30:39;18.40;99.90
58513;DHT22;44302;47.914;10.642;2022-07-29T06:33:05;18.40;99.90
58513;DHT22;44302;47.914;10.642;2022-07-29T06:35:33;18.60;99.90
58513;DHT22;44302;47.914;10.642;2022-07-29T06:38:00;18.60;99.90
58513;DHT22;44302;47.914;10.642;2022-07-29T06:40:26;18.80;99.90
58513;DHT22;44302;47.914;10.642;2022-07-29T06:43:10;18.90;99.90
58513;DHT22;44302;47.914;10.642;2022-07-29T06:45:36;19.00;99.90
58513;DHT22;44302;47.914;10.642;2022-07-29T06:50:28;19.10;99.90
58513;DHT22;44302;47.914;10.642;2022-07-29T06:52:53;19.20;99.90
58513;DHT22;44302;47.914;10.642;2022-07-29T06:55:19;19.30;99.90
58513;DHT22;44302;47.914;10.642;2022-07-29T06:57:45;19.30;99.90
58513;DHT22;44302;47.914;10.642;2022-07-29T07:00:12;19.40;99.90
58513;DHT22;44302;47.914;10.642;2022-07-29T07:02:38;19.40;99.90
58513;DHT22;44302;47.914;10.642;2022-07-29T07:05:04;19.50;99.90
58513;DHT22;44302;47.914;10.642;2022-07-29T07:07:31;19.50;99.90
58513;DHT22;44302;47.914;10.642;2022-07-29T07:09:56;19.50;99.90
58513;DHT22;44302;47.914;10.642;2022-07-29T07:12:22;19.60;99.90
58513;DHT22;44302;47.914;10.642;2022-07-29T07:14:48;19.60;99.90
58513;DHT22;44302;47.914;10.642;2022-07-29T07:17:14;19.60;99.90
58513;DHT22;44302;47.914;10.642;2022-07-29T07:22:05;19.60;99.90
58513;DHT22;44302;47.914;10.642;2022-07-29T07:24:31;19.70;99.90
58513;DHT22;44302;47.914;10.642;2022-07-29T07:26:57;19.70;99.90
58513;DHT22;44302;47.914;10.642;2022-07-29T07:29:22;19.80;99.90
58513;DHT22;44302;47.914;10.642;2022-07-29T07:31:48;19.80;99.90
58513;DHT22;44302;47.914;10.642;2022-07-29T07:34:14;19.80;99.90
58513;DHT22;44302;47.914;10.642;2022-07-29T07:36:39;19.80;99.90
58513;DHT22;44302;47.914;10.642;2022-07-29T07:39:05;19.80;99.90
58513;DHT22;44302;47.914;10.642;2022-07-29T07:41:31;19.70;99.90
58513;DHT22;44302;47.914;10.642;2022-07-29T07:43:57;19.80;99.90
58513;DHT22;44302;47.914;10.642;2022-07-29T07:46:22;19.80;99.90
58513;DHT22;44302;47.914;10.642;2022-07-29T07:48:48;19.80;99.90
58513;DHT22;44302;47.914;10.642;2022-07-29T07:51:14;19.80;99.90
58513;DHT22;44302;47.914;10.642;2022-07-29T07:53:39;19.80;99.90
58513;DHT22;44302;47.914;10.642;2022-07-29T07:56:05;19.90;99.90
58513;DHT22;44302;47.914;10.642;2022-07-29T07:58:32;19.90;99.90
58513;DHT22;44302;47.914;10.642;2022-07-29T08:01:00;19.80;99.90
58513;DHT22;44302;47.914;10.642;2022-07-29T08:03:25;19.80;99.90
58513;DHT22;44302;47.914;10.642;2022-07-29T08:05:51;19.80;99.90
58513;DHT22;44302;47.914;10.642;2022-07-29T08:08:17;19.80;99.90
58513;DHT22;44302;47.914;10.642;2022-07-29T08:10:43;19.80;99.90
58513;DHT22;44302;47.914;10.642;2022-07-29T08:13:19;20.00;99.90
58513;DHT22;44302;47.914;10.642;2022-07-29T08:15:45;20.20;99.90
58513;DHT22;44302;47.914;10.642;2022-07-29T08:18:12;20.10;99.90
58513;DHT22;44302;47.914;10.642;2022-07-29T08:20:38;20.20;99.90
58513;DHT22;44302;47.914;10.642;2022-07-29T08:23:06;20.20;99.90
58513;DHT22;44302;47.914;10.642;2022-07-29T08:25:35;20.20;99.90
58513;DHT22;44302;47.914;10.642;2022-07-29T08:28:01;20.20;99.90
58513;DHT22;44302;47.914;10.642;2022-07-29T08:30:27;20.10;99.90
58513;DHT22;44302;47.914;10.642;2022-07-29T08:32:53;20.00;99.90
58513;DHT22;44302;47.914;10.642;2022-07-29T08:35:22;20.00;99.90
58513;DHT22;44302;47.914;10.642;2022-07-29T08:37:48;20.00;99.90
58513;DHT22;44302;47.914;10.642;2022-07-29T08:40:14;20.00;99.90
58513;DHT22;44302;47.914;10.642;2022-07-29T08:42:40;20.10;99.90
58513;DHT22;44302;47.914;10.642;2022-07-29T08:45:06;20.40;99.90
58513;DHT22;44302;47.914;10.642;2022-07-29T08:47:33;20.30;99.90
58513;DHT22;44302;47.914;10.642;2022-07-29T08:50:02;20.50;99.90
58513;DHT22;44302;47.914;10.642;2022-07-29T08:52:30;20.60;99.90
58513;DHT22;44302;47.914;10.642;2022-07-29T08:54:58;20.70;99.90
58513;DHT22;44302;47.914;10.642;2022-07-29T08:57:24;20.80;99.90
58513;DHT22;44302;47.914;10.642;2022-07-29T08:59:51;20.80;99.90
58513;DHT22;44302;47.914;10.642;2022-07-29T09:02:22;20.90;99.90
58513;DHT22;44302;47.914;10.642;2022-07-29T09:04:48;21.00;99.90
58513;DHT22;44302;47.914;10.642;2022-07-29T09:07:18;21.10;99.90
58513;DHT22;44302;47.914;10.642;2022-07-29T09:09:44;21.10;99.90
58513;DHT22;44302;47.914;10.642;2022-07-29T09:12:11;21.30;99.90
58513;DHT22;44302;47.914;10.642;2022-07-29T09:14:38;21.50;99.90
58513;DHT22;44302;47.914;10.642;2022-07-29T09:17:04;21.60;99.90
58513;DHT22;44302;47.914;10.642;2022-07-29T09:19:34;21.80;99.90
58513;DHT22;44302;47.914;10.642;2022-07-29T09:22:03;22.40;99.90
58513;DHT22;44302;47.914;10.642;2022-07-29T09:24:48;22.70;99.90
58513;DHT22;44302;47.914;10.642;2022-07-29T09:27:25;22.70;99.90
58513;DHT22;44302;47.914;10.642;2022-07-29T09:30:06;22.50;99.90
58513;DHT22;44302;47.914;10.642;2022-07-29T09:32:33;22.60;99.90
58513;DHT22;44302;47.914;10.642;2022-07-29T09:35:24;22.90;99.90
58513;DHT22;44302;47.914;10.642;2022-07-29T09:37:50;23.00;99.90
58513;DHT22;44302;47.914;10.642;2022-07-29T09:40:19;23.50;99.90
58513;DHT22;44302;47.914;10.642;2022-07-29T09:42:46;24.00;99.90
58513;DHT22;44302;47.914;10.642;2022-07-29T09:45:13;24.30;99.90
58513;DHT22;44302;47.914;10.642;2022-07-29T09:47:51;24.30;99.90
58513;DHT22;44302;47.914;10.642;2022-07-29T09:50:16;24.60;99.90
58513;DHT22;44302;47.914;10.642;2022-07-29T09:52:53;24.40;99.90
58513;DHT22;44302;47.914;10.642;2022-07-29T09:55:19;24.10;99.90
58513;DHT22;44302;47.914;10.642;2022-07-29T09:57:46;23.70;99.90
58513;DHT22;44302;47.914;10.642;2022-07-29T10:00:19;23.40;99.90
58513;DHT22;44302;47.914;10.642;2022-07-29T10:02:47;23.20;99.90
58513;DHT22;44302;47.914;10.642;2022-07-29T10:05:24;23.10;99.90
58513;DHT22;44302;47.914;10.642;2022-07-29T10:07:52;23.10;99.90
58513;DHT22;44302;47.914;10.642;2022-07-29T10:15:16;23.70;99.90
58513;DHT22;44302;47.914;10.642;2022-07-29T10:17:41;23.70;99.90
58513;DHT22;44302;47.914;10.642;2022-07-29T10:20:09;24.30;99.90
58513;DHT22;44302;47.914;10.642;2022-07-29T10:22:34;25.00;99.90
58513;DHT22;44302;47.914;10.642;2022-07-29T10:25:01;25.20;99.90
58513;DHT22;44302;47.914;10.642;2022-07-29T10:27:27;25.20;99.90
58513;DHT22;44302;47.914;10.642;2022-07-29T10:29:54;25.10;99.90
58513;DHT22;44302;47.914;10.642;2022-07-29T10:35:15;24.50;99.90
58513;DHT22;44302;47.914;10.642;2022-07-29T10:40:52;24.30;99.90
58513;DHT22;44302;47.914;10.642;2022-07-29T10:43:43;24.00;99.90
58513;DHT22;44302;47.914;10.642;2022-07-29T10:46:10;24.20;99.90
58513;DHT22;44302;47.914;10.642;2022-07-29T10:54:43;25.10;99.90
58513;DHT22;44302;47.914;10.642;2022-07-29T10:57:28;24.90;99.90
58513;DHT22;44302;47.914;10.642;2022-07-29T11:07:35;24.50;99.90
58513;DHT22;44302;47.914;10.642;2022-07-29T11:15:09;23.70;99.90
58513;DHT22;44302;47.914;10.642;2022-07-29T11:22:58;23.20;99.90
58513;DHT22;44302;47.914;10.642;2022-07-29T11:25:24;22.70;99.90
58513;DHT22;44302;47.914;10.642;2022-07-29T11:27:52;22.70;99.90
58513;DHT22;44302;47.914;10.642;2022-07-29T11:30:19;22.50;99.90
58513;DHT22;44302;47.914;10.642;2022-07-29T11:32:45;22.40;99.90
58513;DHT22;44302;47.914;10.642;2022-07-29T11:37:42;22.20;99.90
58513;DHT22;44302;47.914;10.642;2022-07-29T11:40:10;22.20;99.90
58513;DHT22;44302;47.914;10.642;2022-07-29T11:42:38;22.10;99.90
58513;DHT22;44302;47.914;10.642;2022-07-29T11:45:17;21.90;99.90
58513;DHT22;44302;47.914;10.642;2022-07-29T11:47:52;21.90;99.90
58513;DHT22;44302;47.914;10.642;2022-07-29T11:50:36;21.90;99.90
58513;DHT22;44302;47.914;10.642;2022-07-29T11:53:10;21.90;99.90
58513;DHT22;44302;47.914;10.642;2022-07-29T11:55:39;21.90;99.90
58513;DHT22;44302;47.914;10.642;2022-07-29T11:58:05;21.80;99.90
58513;DHT22;44302;47.914;10.642;2022-07-29T12:00:35;21.70;99.90
58513;DHT22;44302;47.914;10.642;2022-07-29T12:03:04;21.70;99.90
58513;DHT22;44302;47.914;10.642;2022-07-29T12:08:06;21.60;99.90
58513;DHT22;44302;47.914;10.642;2022-07-29T12:10:32;21.60;99.90
58513;DHT22;44302;47.914;10.642;2022-07-29T12:12:58;21.60;99.90
58513;DHT22;44302;47.914;10.642;2022-07-29T12:17:50;21.50;99.90
58513;DHT22;44302;47.914;10.642;2022-07-29T12:20:43;21.50;99.90
58513;DHT22;44302;47.914;10.642;2022-07-29T12:23:12;21.40;99.90
58513;DHT22;44302;47.914;10.642;2022-07-29T12:25:39;21.30;99.90
58513;DHT22;44302;47.914;10.642;2022-07-29T12:28:07;21.30;99.90
58513;DHT22;44302;47.914;10.642;2022-07-29T12:30:39;21.20;99.90
58513;DHT22;44302;47.914;10.642;2022-07-29T12:35:37;21.00;99.90
58513;DHT22;44302;47.914;10.642;2022-07-29T12:38:04;21.00;99.90
58513;DHT22;44302;47.914;10.642;2022-07-29T12:40:29;20.90;99.90
58513;DHT22;44302;47.914;10.642;2022-07-29T12:43:16;21.00;99.90
58513;DHT22;44302;47.914;10.642;2022-07-29T12:45:45;21.00;99.90
58513;DHT22;44302;47.914;10.642;2022-07-29T12:48:11;21.10;99.90
58513;DHT22;44302;47.914;10.642;2022-07-29T12:50:52;21.10;99.90
58513;DHT22;44302;47.914;10.642;2022-07-29T12:53:19;21.10;99.90
58513;DHT22;44302;47.914;10.642;2022-07-29T12:55:47;21.30;99.90
58513;DHT22;44302;47.914;10.642;2022-07-29T12:58:37;21.30;99.90
58513;DHT22;44302;47.914;10.642;2022-07-29T13:01:13;21.30;99.90
58513;DHT22;44302;47.914;10.642;2022-07-29T13:03:59;21.40;99.90
58513;DHT22;44302;47.914;10.642;2022-07-29T13:06:37;21.60;99.90
58513;DHT22;44302;47.914;10.642;2022-07-29T13:09:18;21.70;99.90
58513;DHT22;44302;47.914;10.642;2022-07-29T13:11:52;22.20;99.90
58513;DHT22;44302;47.914;10.642;2022-07-29T13:14:34;22.40;99.90
58513;DHT22;44302;47.914;10.642;2022-07-29T13:17:09;22.70;99.90
58513;DHT22;44302;47.914;10.642;2022-07-29T13:22:01;23.10;99.90
58513;DHT22;44302;47.914;10.642;2022-07-29T13:24:27;23.10;99.90
58513;DHT22;44302;47.914;10.642;2022-07-29T13:31:45;22.70;99.90
58513;DHT22;44302;47.914;10.642;2022-07-29T13:36:36;22.40;99.90
58513;DHT22;44302;47.914;10.642;2022-07-29T13:39:02;22.40;99.90
58513;DHT22;44302;47.914;10.642;2022-07-29T13:43:54;23.10;99.90
58513;DHT22;44302;47.914;10.642;2022-07-29T13:46:21;23.20;99.90
58513;DHT22;44302;47.914;10.642;2022-07-29T13:48:47;23.20;99.90
58513;DHT22;44302;47.914;10.642;2022-07-29T13:51:13;23.10;99.90
58513;DHT22;44302;47.914;10.642;2022-07-29T13:53:38;23.10;99.90
58513;DHT22;44302;47.914;10.642;2022-07-29T13:56:04;22.80;99.90
58513;DHT22;44302;47.914;10.642;2022-07-29T13:58:33;22.70;99.90
58513;DHT22;44302;47.914;10.642;2022-07-29T14:00:59;23.00;99.90
58513;DHT22;44302;47.914;10.642;2022-07-29T14:03:25;23.40;99.90
58513;DHT22;44302;47.914;10.642;2022-07-29T14:05:51;23.50;99.90
58513;DHT22;44302;47.914;10.642;2022-07-29T14:08:17;23.60;99.90
58513;DHT22;44302;47.914;10.642;2022-07-29T14:10:43;23.40;99.90
58513;DHT22;44302;47.914;10.642;2022-07-29T14:13:08;23.40;99.90
58513;DHT22;44302;47.914;10.642;2022-07-29T14:15:34;22.80;99.90
58513;DHT22;44302;47.914;10.642;2022-07-29T14:18:01;22.80;99.90
58513;DHT22;44302;47.914;10.642;2022-07-29T14:20:26;22.60;99.90
58513;DHT22;44302;47.914;10.642;2022-07-29T14:22:55;22.40;99.90
58513;DHT22;44302;47.914;10.642;2022-07-29T14:25:20;22.20;99.90
58513;DHT22;44302;47.914;10.642;2022-07-29T14:27:46;22.20;99.90
58513;DHT22;44302;47.914;10.642;2022-07-29T14:30:12;22.30;99.90
58513;DHT22;44302;47.914;10.642;2022-07-29T14:32:38;22.30;99.90
58513;DHT22;44302;47.914;10.642;2022-07-29T14:35:05;22.30;99.90
58513;DHT22;44302;47.914;10.642;2022-07-29T14:37:31;22.40;99.90
58513;DHT22;44302;47.914;10.642;2022-07-29T14:39:57;22.60;99.90
58513;DHT22;44302;47.914;10.642;2022-07-29T14:42:27;22.60;99.90
58513;DHT22;44302;47.914;10.642;2022-07-29T14:44:52;22.60;99.90
58513;DHT22;44302;47.914;10.642;2022-07-29T14:47:18;22.50;99.90
58513;DHT22;44302;47.914;10.642;2022-07-29T14:49:44;22.40;99.90
58513;DHT22;44302;47.914;10.642;2022-07-29T14:52:10;22.20;99.90
58513;DHT22;44302;47.914;10.642;2022-07-29T14:54:36;22.00;99.90
58513;DHT22;44302;47.914;10.642;2022-07-29T14:57:01;22.00;99.90
58513;DHT22;44302;47.914;10.642;2022-07-29T14:59:27;21.90;99.90
58513;DHT22;44302;47.914;10.642;2022-07-29T15:01:53;21.90;99.90
58513;DHT22;44302;47.914;10.642;2022-07-29T15:09:10;21.90;99.90
58513;DHT22;44302;47.914;10.642;2022-07-29T15:11:36;21.80;99.90
58513;DHT22;44302;47.914;10.642;2022-07-29T15:14:02;21.70;99.90
58513;DHT22;44302;47.914;10.642;2022-07-29T15:16:27;21.40;99.90
58513;DHT22;44302;47.914;10.642;2022-07-29T15:18:53;21.30;99.90
58513;DHT22;44302;47.914;10.642;2022-07-29T15:21:19;21.00;99.90
58513;DHT22;44302;47.914;10.642;2022-07-29T15:26:11;20.80;99.90
58513;DHT22;44302;47.914;10.642;2022-07-29T15:28:36;20.70;99.90
58513;DHT22;44302;47.914;10.642;2022-07-29T15:31:02;20.50;99.90
58513;DHT22;44302;47.914;10.642;2022-07-29T15:35:55;20.50;99.90
58513;DHT22;44302;47.914;10.642;2022-07-29T15:38:21;20.50;99.90
58513;DHT22;44302;47.914;10.642;2022-07-29T15:43:13;20.50;99.90
58513;DHT22;44302;47.914;10.642;2022-07-29T15:45:40;20.40;99.90
58513;DHT22;44302;47.914;10.642;2022-07-29T15:48:07;20.30;99.90
58513;DHT22;44302;47.914;10.642;2022-07-29T15:50:34;20.30;99.90
58513;DHT22;44302;47.914;10.642;2022-07-29T15:53:00;20.30;99.90
58513;DHT22;44302;47.914;10.642;2022-07-29T15:55:26;20.20;99.90
58513;DHT22;44302;47.914;10.642;2022-07-29T15:57:52;20.10;99.90
58513;DHT22;44302;47.914;10.642;2022-07-29T16:00:17;20.20;99.90
58513;DHT22;44302;47.914;10.642;2022-07-29T16:02:44;20.20;99.90
58513;DHT22;44302;47.914;10.642;2022-07-29T16:05:10;20.20;99.90
58513;DHT22;44302;47.914;10.642;2022-07-29T16:07:35;20.20;99.90
58513;DHT22;44302;47.914;10.642;2022-07-29T16:10:03;20.20;99.90
58513;DHT22;44302;47.914;10.642;2022-07-29T16:12:29;20.10;99.90
58513;DHT22;44302;47.914;10.642;2022-07-29T16:17:20;20.10;99.90
58513;DHT22;44302;47.914;10.642;2022-07-29T16:19:46;20.00;99.90
58513;DHT22;44302;47.914;10.642;2022-07-29T16:22:12;20.00;99.90
58513;DHT22;44302;47.914;10.642;2022-07-29T16:24:38;19.90;99.90
58513;DHT22;44302;47.914;10.642;2022-07-29T16:29:30;19.60;99.90
58513;DHT22;44302;47.914;10.642;2022-07-29T16:31:56;19.20;99.90
58513;DHT22;44302;47.914;10.642;2022-07-29T16:36:47;18.90;99.90
58513;DHT22;44302;47.914;10.642;2022-07-29T16:39:13;18.80;99.90
58513;DHT22;44302;47.914;10.642;2022-07-29T16:44:05;18.50;99.90
58513;DHT22;44302;47.914;10.642;2022-07-29T16:49:02;18.20;99.90
58513;DHT22;44302;47.914;10.642;2022-07-29T16:51:27;18.00;99.90
58513;DHT22;44302;47.914;10.642;2022-07-29T16:53:54;18.00;99.90
58513;DHT22;44302;47.914;10.642;2022-07-29T16:58:46;17.90;99.90
58513;DHT22;44302;47.914;10.642;2022-07-29T17:03:37;17.80;99.90
58513;DHT22;44302;47.914;10.642;2022-07-29T17:06:26;17.70;99.90
58513;DHT22;44302;47.914;10.642;2022-07-29T17:08:53;17.70;99.90
58513;DHT22;44302;47.914;10.642;2022-07-29T17:13:44;17.50;99.90
58513;DHT22;44302;47.914;10.642;2022-07-29T17:16:10;17.40;99.90
58513;DHT22;44302;47.914;10.642;2022-07-29T17:21:02;17.20;99.90
58513;DHT22;44302;47.914;10.642;2022-07-29T17:25:54;17.20;99.90
58513;DHT22;44302;47.914;10.642;2022-07-29T17:30:45;17.10;99.90
58513;DHT22;44302;47.914;10.642;2022-07-29T17:33:11;17.10;99.90
58513;DHT22;44302;47.914;10.642;2022-07-29T17:38:21;17.00;99.90
58513;DHT22;44302;47.914;10.642;2022-07-29T17:43:13;17.10;99.90
58513;DHT22;44302;47.914;10.642;2022-07-29T17:48:05;17.10;99.90
58513;DHT22;44302;47.914;10.642;2022-07-29T17:50:31;16.90;99.90
58513;DHT22;44302;47.914;10.642;2022-07-29T17:55:22;17.10;99.90
58513;DHT22;44302;47.914;10.642;2022-07-29T18:05:06;16.70;99.90
58513;DHT22;44302;47.914;10.642;2022-07-29T18:09:59;17.00;99.90
58513;DHT22;44302;47.914;10.642;2022-07-29T18:14:50;17.00;99.90
58513;DHT22;44302;47.914;10.642;2022-07-29T18:24:37;16.80;99.90
58513;DHT22;44302;47.914;10.642;2022-07-29T18:29:29;17.00;99.90
58513;DHT22;44302;47.914;10.642;2022-07-29T18:44:08;16.40;99.90
58513;DHT22;44302;47.914;10.642;2022-07-29T18:46:34;16.30;99.90
58513;DHT22;44302;47.914;10.642;2022-07-29T18:51:27;16.40;99.90
58513;DHT22;44302;47.914;10.642;2022-07-29T18:56:19;16.20;99.90
58513;DHT22;44302;47.914;10.642;2022-07-29T19:01:11;16.00;99.90
58513;DHT22;44302;47.914;10.642;2022-07-29T19:13:24;16.00;99.90
58513;DHT22;44302;47.914;10.642;2022-07-29T19:18:16;15.90;99.90
58513;DHT22;44302;47.914;10.642;2022-07-29T19:23:07;16.10;99.90
58513;DHT22;44302;47.914;10.642;2022-07-29T19:25:33;16.10;99.90
58513;DHT22;44302;47.914;10.642;2022-07-29T19:35:18;16.10;99.90
58513;DHT22;44302;47.914;10.642;2022-07-29T19:37:54;16.10;99.90
58513;DHT22;44302;47.914;10.642;2022-07-29T19:40:21;16.10;99.90
58513;DHT22;44302;47.914;10.642;2022-07-29T19:42:47;16.20;99.90
58513;DHT22;44302;47.914;10.642;2022-07-29T19:45:15;16.00;99.90
58513;DHT22;44302;47.914;10.642;2022-07-29T19:50:08;16.10;99.90
58513;DHT22;44302;47.914;10.642;2022-07-29T19:55:01;16.00;99.90
58513;DHT22;44302;47.914;10.642;2022-07-29T19:59:52;16.00;99.90
58513;DHT22;44302;47.914;10.642;2022-07-29T20:04:44;16.00;99.90
58513;DHT22;44302;47.914;10.642;2022-07-29T20:12:06;16.40;99.90
58513;DHT22;44302;47.914;10.642;2022-07-29T20:14:32;16.30;99.90
58513;DHT22;44302;47.914;10.642;2022-07-29T20:19:24;16.20;99.90
58513;DHT22;44302;47.914;10.642;2022-07-29T20:24:17;16.20;99.90